TOURFACTS.DK  
Stats and Facts from Tour de France.

Tour de France 2019 starts in 323 days
  Riders   Stages   Teams   Summits   Yearly  


 
Search by year

After 2018 - Stage 21:
 15000 starters.
  5165 different riders.
  638 teams.
  2253 stages.
  456 restdays.
  442940.60 km.
  5684 abandonnees.


Top 3
GC
Geraint Thomas83:17:13
Tom Dumoulin83:19:04
Christopher Froome83:19:37
Climb
Julian Alaphilippe170 pt.
Warren Barguil91 pt.
Rafal Majka76 pt.
Sprint
Peter Sagan477 pt.
Alexander Kristoff246 pt.
Arnaud Démare203 pt.
Youth
Pierre-Roger Latou..83:39:26
Egan Bernal83:45:05
Guillaume Martin84:01:31
Facts from Tour de France 1949
  |   Stages.  |   Stage winners.  |   Days in yellow  |   Average speed.  |   Route.  |   Teams.  |   All riders.  |   Rookies.  |  

  |   Withdrawls.  |   GC.  |   Polka  |   Green  |   White  |   Summits. (In tour)  |   Miscellaneous.  |  

Stage 14 on 15 - 07 - 1949
         Owning:    Vittorio Magni    
Pick a stage:  1 2 3 4 5 6 7 8 9 10 11 12 13 14 15 16 17 18 19 20 21
  NîmesMarseille | Dist: 199.00 km.

Average speed for all riders in stage:  31,356 km./hr.
    Place:Name:Team:Time:Km/h:
1
LUXJean GoldschmitLUXLuxembourg06:17:08  +  00:00:00=31,660 
2
FRAJean BlancFRACenter-South West06:18:59  +  00:01:51=31,505 
3
FRAJean RobicFRAWest-North06:19:48  +  00:02:40=31,438 
44 ITAGino SciardisITAItaly06:19:48  +  00:02:40=31,438 
55 BELStan OckersBELBelgium06:19:48  +  00:02:40=31,438 
66 BELMarcel HendrickxBELAiglons Belges06:19:48  +  00:02:40=31,438 
77 FRAAlbert DolhatsFRACenter-South West06:19:48  +  00:02:40=31,438 
88 BELMarcel KintBELBelgium06:19:48  +  00:02:40=31,438 
99 SUIFerdi KüblerCHESwitzerland06:19:48  +  00:02:40=31,438 
1010 FRAEdouard MullerFRAIle De France06:19:48  +  00:02:40=31,438 
1111 ITAGiuseppe TaccaFRAIle De France06:19:48  +  00:02:40=31,438 
1212 FRAJacques MarinelliFRAIle De France06:19:48  +  00:02:40=31,438 
1313 FRAEmile IdéeFRAIle De France06:19:48  +  00:02:40=31,438 
1414 BELJacques GeusBELAiglons Belges06:19:48  +  00:02:40=31,438 
1515 BELMarcel DupontBELAiglons Belges06:19:48  +  00:02:40=31,438 
1616 BELMarcel De MulderBELAiglons Belges06:19:48  +  00:02:40=31,438 
1717 ITAArmando PeverelliITACadetti Italiens06:19:48  +  00:02:40=31,438 
1818 ITASylvio PedroniITACadetti Italiens06:19:48  +  00:02:40=31,438 
1919 FRAPierre CoganFRAWest-North06:19:48  +  00:02:40=31,438 
2020 FRAJean-Marie GoasmatFRAWest-North06:19:48  +  00:02:40=31,438 
2121 ITANello LaurediFRASouth-East06:19:48  +  00:02:40=31,438 
2222 FRAPaul GiguetFRASouth-East06:19:48  +  00:02:40=31,438 
2323 ITAÉdouard FachleitnerFRASouth-East06:19:48  +  00:02:40=31,438 
2424 ITAAdolphe DeleddaFRASouth-East06:19:48  +  00:02:40=31,438 
2525 ITAFermo CamelliniFRASouth-East06:19:48  +  00:02:40=31,438 
2626 SUIPierre BrambillaFRASouth-East06:19:48  +  00:02:40=31,438 
2727 FRAAntonin RollandFRASouth-East06:19:48  +  00:02:40=31,438 
2828 FRAPaul PineauFRACenter-South West06:19:48  +  00:02:40=31,438 
2929 FRAHenri MassalFRACenter-South West06:19:48  +  00:02:40=31,438 
3030 FRARoger LevequeFRACenter-South West06:19:48  +  00:02:40=31,438 
3131 GERCésar MarcelakFRAWest-North06:19:48  +  00:02:40=31,438 
3232 FRAAndre MahéFRAWest-North06:19:48  +  00:02:40=31,438 
3333 ITAAlfredo MartiniITACadetti Italiens06:19:48  +  00:02:40=31,438 
3434 ITAVittorio MagniITACadetti Italiens06:19:48  +  00:02:40=31,438 
3535 ITAGiuseppe AusendaITACadetti Italiens06:19:48  +  00:02:40=31,438 
3636 BELRik Van SteenbergenBELBelgium06:19:48  +  00:02:40=31,438 
3737 BELBriek SchotteBELBelgium06:19:48  +  00:02:40=31,438 
3838 ITAGino BartaliITAItaly06:19:48  +  00:02:40=31,438 
3939 BELRoger LambrechtBELBelgium06:19:48  +  00:02:40=31,438 
4040 BELDésiré KeteleerBELBelgium06:19:48  +  00:02:40=31,438 
4141 ITAVincenzo RosselloITAItaly06:19:48  +  00:02:40=31,438 
4242 ITALuciano PezziITAItaly06:19:48  +  00:02:40=31,438 
4343 ITABruno PasquiniITAItaly06:19:48  +  00:02:40=31,438 
4444 ITAFausto CoppiITAItaly06:19:48  +  00:02:40=31,438 
4545 ITASerifano BiagioniITAItaly06:19:48  +  00:02:40=31,438 
4646 FRARobert ChapatteFRAFrance06:19:48  +  00:02:40=31,438 
4747 FRALouis DeprezFRAFrance06:19:48  +  00:02:40=31,438 
4848 FRARené ViettoFRAFrance06:19:48  +  00:02:40=31,438 
4949 FRAJean-Apotre LazaridesFRAFrance06:19:48  +  00:02:40=31,438 
5050 LUXJean KirchenLUXLuxembourg06:19:48  +  00:02:40=31,438 
5151 FRALucien LazaridesFRAFrance06:19:48  +  00:02:40=31,438 
5252 LUXJean DiederichLUXLuxembourg06:19:48  +  00:02:40=31,438 
5353 SUIGottfried WeilenmannCHESwitzerland06:19:48  +  00:02:40=31,438 
5454 FRAAndré BruléFRAIle De France06:19:48  +  00:02:40=31,438 
5555 FRALucien TeisseireFRAFrance06:19:48  +  00:02:40=31,438 
5656 FRAGeorges RamouluxFRACenter-South West06:20:57  +  00:03:49=31,343 
5757 MARCustodio Dos ReisFRACenter-South West06:22:59  +  00:05:51=31,176 
5858 BELJoseph VerhaertBELAiglons Belges06:22:59  +  00:05:51=31,176 
5959 FRAGeorges MartinFRASouth-East06:22:59  +  00:05:51=31,176 
6060 SUIGeorges AeschlimannCHESwitzerland06:22:59  +  00:05:51=31,176 
6161 ITAMario RicciITAItaly06:23:50  +  00:06:42=31,107 
6262 ITAAngelo BrignoleITAItaly06:24:49  +  00:07:41=31,028 
6363 ITAEttore MilanoITAItaly06:24:49  +  00:07:41=31,028 
6464 FRARoger Le NizerhyFRAWest-North06:25:52  +  00:08:44=30,943 
6565 BELFlorent MathieuBELBelgium06:25:52  +  00:08:44=30,943 
6666 FRARaphaël GeminianiFRAFrance06:30:05  +  00:12:57=30,609 
6767 ITAGuido De SantiITAItaly06:30:05  +  00:12:57=30,609 
6868 ITAGiovanni CorrieriITAItaly06:30:05  +  00:12:57=30,609 

Todays birthdays.

1874  Achille Colas
1895  Lucien Meunier
1902  Lazare Venot
1915  Albert Gijsen
1924  Marcel Zelasco
1930  Juan Campillo
1931  Jean-Claude Skerl
1934  Jean Selic
1935  Arnaldo Pambianco
1955  Mario Beccia
1956  Daniel Willems
1957  Dominique Sanders
1959  Marc Sergeant
1960  Éric Caritoux
1963  Jelle Nijdam
1971  Arnaud Prétot
1980  Piet Rooijakkers